Terminal Aerodrome Forecast
Issued by NWS

Home | Current Version | Previous Version | Text Only | Print | Product List | Glossary On
Versions: 1 2 3 4 5 6 7 8 9 10 11 12 13 14 15 16 17 18 19 20 21
000
FTUS46 KLOX 261100
TAFOXR
TAF
KOXR 261138Z 2612/2712 VRB05KT P6SM SKC
     FM261700 32012KT P6SM SKC
     FM261900 27015G20KT P6SM SKC
     FM262100 28017G25KT P6SM SKC
     FM270300 28009KT P6SM SKC=

USA.gov is the U.S. government's official web portal to all federal, state and local government web resources and services.